Time;durP1;ratioP1;P1;durP2;ratioP2;P2;SDS_P1;SDS_P2;PMS_P1;PMS_P2;Temp;Humidity;BMP_temperature;BMP_pressure;BME280_temperature;BME280_humidity;BME280_pressure;Samples;Min_cycle;Max_cycle;Signal;HPM_P1;HPM_P2
2021/04/26 00:02:12;;;;;;;19.10;7.43;;;;;;;0.21;66.45;98795.97;114826;1202;23176;-79
2021/04/26 00:04:39;;;;;;;18.25;7.50;;;;;;;0.21;66.72;98793.30;114767;1202;26015;-79
2021/04/26 00:07:06;;;;;;;18.43;7.07;;;;;;;0.16;67.13;98799.16;114770;1200;24900;-80
2021/04/26 00:09:33;;;;;;;17.83;6.93;;;;;;;0.12;66.25;98795.16;115057;1202;23112;-80
2021/04/26 00:12:00;;;;;;;16.05;6.00;;;;;;;0.07;67.25;98789.47;115060;1202;27189;-80
2021/04/26 00:14:27;;;;;;;17.70;6.85;;;;;;;0.04;66.66;98790.66;114750;1202;23145;-80
2021/04/26 00:16:54;;;;;;;17.53;7.07;;;;;;;0.03;67.11;98788.97;114800;1200;24659;-80
2021/04/26 00:19:21;;;;;;;18.23;7.13;;;;;;;0.03;67.00;98797.00;114830;1201;24739;-79
2021/04/26 00:21:47;;;;;;;19.80;7.25;;;;;;;0.03;67.52;98797.00;114936;1202;23275;-80
2021/04/26 00:24:14;;;;;;;18.80;7.20;;;;;;;0.02;67.58;98797.16;114868;1202;23121;-80
2021/04/26 00:26:41;;;;;;;18.00;7.80;;;;;;;0.02;67.16;98803.38;114874;1200;23129;-80
2021/04/26 00:29:08;;;;;;;15.63;7.27;;;;;;;0.04;67.62;98805.89;114875;1200;23135;-80
2021/04/26 00:31:35;;;;;;;21.00;7.40;;;;;;;0.07;67.42;98801.03;114872;1199;23105;-80
2021/04/26 00:34:02;;;;;;;18.20;7.50;;;;;;;0.11;66.98;98802.36;114855;1200;27309;-80
2021/04/26 00:36:29;;;;;;;21.60;7.70;;;;;;;0.14;67.02;98804.70;114836;1202;23122;-80
2021/04/26 00:38:56;;;;;;;19.25;7.85;;;;;;;0.16;67.58;98808.05;114892;1202;23112;-80
2021/04/26 00:41:23;;;;;;;24.93;8.77;;;;;;;0.17;67.27;98804.34;115126;1202;23113;-80
2021/04/26 00:43:50;;;;;;;22.05;9.60;;;;;;;0.16;66.09;98796.47;114720;1202;23099;-80
2021/04/26 00:46:17;;;;;;;24.60;9.87;;;;;;;0.17;66.44;98800.84;114798;1202;23102;-80
2021/04/26 00:48:44;;;;;;;21.50;9.30;;;;;;;0.16;66.71;98789.30;115093;1200;27220;-80
2021/04/26 00:51:11;;;;;;;23.70;10.00;;;;;;;0.15;66.58;98801.00;114804;1200;23096;-80
2021/04/26 00:53:38;;;;;;;19.60;9.60;;;;;;;0.15;66.37;98789.47;114825;1202;23135;-80
2021/04/26 00:56:06;;;;;;;21.60;10.10;;;;;;;0.13;66.05;98789.63;114820;1202;23092;-80
2021/04/26 00:58:33;;;;;;;25.25;10.30;;;;;;;0.15;66.97;98790.29;114876;1200;23117;-80
2021/04/26 01:01:00;;;;;;;23.20;10.10;;;;;;;0.17;66.38;98793.63;115167;1200;23112;-80
2021/04/26 01:03:27;;;;;;;27.20;10.65;;;;;;;0.20;66.95;98795.15;114844;1199;23105;-80
2021/04/26 01:05:55;;;;;;;24.93;10.57;;;;;;;0.22;66.96;98800.34;115120;1200;23105;-80
2021/04/26 01:08:22;;;;;;;26.93;11.67;;;;;;;0.24;66.56;98801.00;115153;1202;23113;-80
2021/04/26 01:11:10;;;;;;;24.30;11.85;;;;;;;0.27;66.72;98796.14;114961;1200;23132;-81
2021/04/26 01:13:57;;;;;;;23.85;11.10;;;;;;;0.30;66.67;98797.63;115162;1198;23112;-80
2021/04/26 01:16:47;;;;;;;24.60;10.90;;;;;;;0.30;66.90;98797.63;114893;1202;27339;-80
2021/04/26 01:19:53;;;;;;;20.87;9.93;;;;;;;0.29;67.09;98793.30;114817;1199;26268;-80
2021/04/26 01:23:00;;;;;;;21.45;9.35;;;;;;;0.22;67.32;98793.13;114803;1200;26343;-80
2021/04/26 01:25:29;;;;;;;25.60;10.60;;;;;;;0.22;66.79;98785.09;115066;1202;23109;-80
2021/04/26 01:28:21;;;;;;;20.00;9.30;;;;;;;0.27;66.95;98782.75;114872;1199;23105;-80
2021/04/26 01:31:07;;;;;;;21.37;9.27;;;;;;;0.31;66.75;98786.74;115103;1198;23574;-80
2021/04/26 01:33:48;;;;;;;21.33;9.33;;;;;;;0.35;66.90;98772.02;115160;1202;23113;-80
2021/04/26 01:36:21;;;;;;;22.23;9.13;;;;;;;0.40;67.80;98776.02;114903;1202;26169;-80
2021/04/26 01:39:00;;;;;;;21.35;9.63;;;;;;;0.41;67.90;98772.31;115168;1202;23113;-80
2021/04/26 01:41:30;;;;;;;21.85;9.40;;;;;;;0.37;68.23;98770.00;114927;1202;23104;-80
2021/04/26 01:43:59;;;;;;;28.17;11.93;;;;;;;0.37;67.86;98772.68;115120;1197;23121;-80
2021/04/26 01:46:26;;;;;;;29.40;13.60;;;;;;;0.36;67.99;98771.00;115138;1200;26048;-80
2021/04/26 01:48:56;;;;;;;31.10;14.20;;;;;;;0.36;68.16;98770.17;114924;1199;26121;-80
2021/04/26 01:51:25;;;;;;;31.60;14.25;;;;;;;0.31;68.79;98775.20;114875;1202;23133;-80
2021/04/26 01:53:53;;;;;;;30.97;15.10;;;;;;;0.29;68.73;98761.98;115085;1202;23128;-79
2021/04/26 01:56:20;;;;;;;39.00;15.13;;;;;;;0.26;69.02;98759.63;115050;1200;23240;-79
2021/04/26 01:58:53;;;;;;;31.93;14.77;;;;;;;0.24;68.97;98761.66;115184;1199;23127;-79
2021/04/26 02:01:25;;;;;;;36.70;16.20;;;;;;;0.25;68.70;98757.13;114865;1202;27287;-79
2021/04/26 02:04:06;;;;;;;31.10;14.60;;;;;;;0.24;68.53;98760.83;114873;1200;24765;-79
2021/04/26 02:06:52;;;;;;;36.43;15.40;;;;;;;0.24;68.33;98758.97;115032;1202;23195;-79
2021/04/26 02:09:41;;;;;;;31.60;14.33;;;;;;;0.25;68.40;98752.63;115095;1199;25222;-79
2021/04/26 02:12:13;;;;;;;31.20;13.53;;;;;;;0.27;68.38;98755.13;115086;1200;23276;-79
2021/04/26 02:14:44;;;;;;;36.40;14.30;;;;;;;0.27;67.92;98750.61;114882;1200;27259;-79
2021/04/26 02:17:13;;;;;;;34.57;14.90;;;;;;;0.25;67.89;98744.59;115072;1202;23112;-79
2021/04/26 02:19:40;;;;;;;29.25;14.05;;;;;;;0.26;67.74;98748.09;115137;1201;27240;-78
2021/04/26 02:22:10;;;;;;;38.10;16.25;;;;;;;0.25;68.11;98749.95;114936;1200;23311;-78
2021/04/26 02:24:53;;;;;;;34.20;15.40;;;;;;;0.26;68.26;98753.45;115090;1200;23115;-79
2021/04/26 02:27:21;;;;;;;38.80;16.85;;;;;;;0.25;68.06;98757.13;115226;1200;23117;-78
2021/04/26 02:29:48;;;;;;;34.73;15.60;;;;;;;0.25;68.16;98749.95;114992;1199;23240;-78
2021/04/26 02:32:23;;;;;;;37.90;15.40;;;;;;;0.23;67.78;98745.75;115285;1199;23109;-78
2021/04/26 02:35:06;;;;;;;35.70;15.33;;;;;;;0.21;67.77;98737.05;114967;1200;23284;-78
2021/04/26 02:38:03;;;;;;;34.20;15.90;;;;;;;0.18;68.70;98740.92;115107;1199;23129;-78
2021/04/26 02:40:40;;;;;;;37.53;15.17;;;;;;;0.17;68.60;98741.92;115141;1199;23135;-78
2021/04/26 02:43:10;;;;;;;41.50;17.93;;;;;;;0.15;67.91;98738.59;115364;1199;23125;-78
2021/04/26 02:46:08;;;;;;;39.13;16.13;;;;;;;0.12;68.64;98742.42;115182;1200;26617;-78
2021/04/26 02:48:42;;;;;;;39.27;17.00;;;;;;;0.06;68.46;98735.09;115195;1200;26032;-78
2021/04/26 02:51:10;;;;;;;31.60;15.83;;;;;;;0.03;68.47;98732.74;114974;1202;23105;-78
2021/04/26 02:53:38;;;;;;;37.20;16.15;;;;;;;0.01;68.57;98733.94;115175;1200;23226;-78
2021/04/26 02:56:16;;;;;;;36.43;17.13;;;;;;;-0.04;69.09;98734.44;114896;1200;23182;-78
2021/04/26 02:58:49;;;;;;;32.77;15.90;;;;;;;-0.06;68.75;98733.77;115114;1200;23186;-79
2021/04/26 03:01:22;;;;;;;34.20;15.60;;;;;;;-0.08;68.61;98727.76;114997;1200;23127;-79
2021/04/26 03:04:00;;;;;;;38.60;16.65;;;;;;;-0.12;68.94;98731.80;115195;1203;23195;-79
2021/04/26 03:06:28;;;;;;;36.37;16.80;;;;;;;-0.13;69.04;98738.96;115461;1201;23108;-79
2021/04/26 03:09:15;;;;;;;40.10;17.90;;;;;;;-0.15;69.65;98734.80;115386;1202;23245;-79
2021/04/26 03:11:44;;;;;;;37.88;16.10;;;;;;;-0.16;69.31;98742.00;115306;1202;23112;-79
2021/04/26 03:14:13;;;;;;;35.30;16.60;;;;;;;-0.17;69.24;98742.99;115148;1200;24890;-79
2021/04/26 03:16:42;;;;;;;35.70;17.13;;;;;;;-0.17;69.38;98748.34;115457;1200;23299;-79
2021/04/26 03:19:10;;;;;;;32.90;17.20;;;;;;;-0.17;70.04;98744.84;114987;1200;23090;-79
2021/04/26 03:21:38;;;;;;;43.40;19.47;;;;;;;-0.18;70.08;98754.69;115260;1200;23109;-79
2021/04/26 03:24:07;;;;;;;40.30;19.20;;;;;;;-0.22;69.27;98745.34;115162;1202;23135;-79
2021/04/26 03:26:34;;;;;;;41.05;20.33;;;;;;;-0.23;69.48;98749.00;115236;1199;23113;-79
2021/04/26 03:29:03;;;;;;;47.33;20.10;;;;;;;-0.24;69.69;98755.38;114989;1202;23112;-79
2021/04/26 03:31:34;;;;;;;49.13;22.10;;;;;;;-0.27;69.86;98756.53;115188;1199;23109;-79
2021/04/26 03:34:09;;;;;;;47.10;20.60;;;;;;;-0.33;69.75;98749.19;115227;1200;23308;-79
2021/04/26 03:36:37;;;;;;;48.10;21.80;;;;;;;-0.35;69.53;98758.38;115303;1202;28406;-79
2021/04/26 03:39:09;;;;;;;47.73;21.60;;;;;;;-0.38;70.13;98762.23;115408;1198;23122;-79
2021/04/26 03:41:37;;;;;;;43.60;22.05;;;;;;;-0.39;69.91;98760.55;115195;1202;23273;-79
2021/04/26 03:44:10;;;;;;;42.70;20.80;;;;;;;-0.40;69.85;98762.40;114920;1200;24890;-79
2021/04/26 03:47:01;;;;;;;46.50;21.90;;;;;;;-0.41;70.11;98759.88;115053;1200;23838;-79
2021/04/26 03:49:46;;;;;;;41.80;20.50;;;;;;;-0.41;70.28;98765.23;115021;1199;23215;-79
2021/04/26 03:52:37;;;;;;;45.40;21.00;;;;;;;-0.44;69.94;98766.42;114781;1200;23806;-79
2021/04/26 03:55:20;;;;;;;42.00;20.20;;;;;;;-0.45;70.72;98769.26;114991;1203;27196;-79
2021/04/26 03:57:49;;;;;;;42.67;20.23;;;;;;;-0.45;70.22;98761.23;115091;1200;24651;-79
2021/04/26 04:00:20;;;;;;;40.75;20.65;;;;;;;-0.46;70.35;98764.90;115248;1202;23186;-79
2021/04/26 04:02:50;;;;;;;50.77;20.63;;;;;;;-0.42;70.25;98764.41;115039;1202;23236;-79
2021/04/26 04:05:21;;;;;;;46.10;21.10;;;;;;;-0.39;70.50;98764.09;115278;1200;23128;-79
2021/04/26 04:07:50;;;;;;;55.85;23.10;;;;;;;-0.39;70.85;98763.23;115289;1200;23252;-79
2021/04/26 04:10:36;;;;;;;47.73;21.30;;;;;;;-0.36;70.09;98760.22;115363;1199;23112;-79
2021/04/26 04:13:21;;;;;;;49.70;20.83;;;;;;;-0.33;70.50;98762.58;115399;1203;23340;-79
2021/04/26 04:15:50;;;;;;;42.87;21.10;;;;;;;-0.28;70.18;98765.58;115343;1202;23135;-79
2021/04/26 04:18:20;;;;;;;44.93;21.80;;;;;;;-0.22;70.50;98764.89;115331;1199;23103;-79
2021/04/26 04:20:47;;;;;;;47.67;21.53;;;;;;;-0.17;70.29;98768.93;115146;1200;23276;-79
2021/04/26 04:23:14;;;;;;;46.70;23.10;;;;;;;-0.10;70.47;98772.60;115256;1199;24731;-79
2021/04/26 04:25:41;;;;;;;47.23;20.80;;;;;;;-0.04;70.52;98771.91;115403;1200;23106;-79
2021/04/26 04:28:08;;;;;;;47.40;21.70;;;;;;;0.01;69.81;98777.59;115148;1199;23113;-79
2021/04/26 04:30:35;;;;;;;47.90;23.90;;;;;;;0.06;70.14;98787.81;114953;1202;23121;-79
2021/04/26 04:33:07;;;;;;;52.20;23.20;;;;;;;0.11;70.19;98786.29;115327;1202;23106;-79
2021/04/26 04:35:53;;;;;;;49.85;23.30;;;;;;;0.15;70.87;98789.47;115376;1200;24532;-79
2021/04/26 04:38:39;;;;;;;53.85;22.80;;;;;;;0.14;70.45;98783.28;115223;1202;23096;-79
2021/04/26 04:41:25;;;;;;;49.35;24.05;;;;;;;0.17;70.19;98790.95;115221;1200;23236;-79
2021/04/26 04:43:53;;;;;;;48.43;23.63;;;;;;;0.20;70.46;98794.32;115147;1200;23240;-79
2021/04/26 04:46:20;;;;;;;56.40;24.60;;;;;;;0.23;69.74;98792.14;114990;1200;26587;-79
2021/04/26 04:48:56;;;;;;;54.45;24.60;;;;;;;0.28;70.10;98795.11;114884;1200;23113;-79
2021/04/26 04:51:25;;;;;;;58.97;26.00;;;;;;;0.30;70.36;98803.84;114962;1200;23173;-79
2021/04/26 04:53:58;;;;;;;55.43;25.23;;;;;;;0.38;70.28;98793.09;114906;1202;24552;-79
2021/04/26 04:56:27;;;;;;;64.20;27.87;;;;;;;0.43;70.54;98800.63;115061;1200;23134;-79
2021/04/26 04:58:55;;;;;;;45.37;21.90;;;;;;;0.48;70.71;98798.27;115588;1202;23112;-79
2021/04/26 05:01:24;;;;;;;54.00;24.50;;;;;;;0.54;69.96;98799.42;115317;1202;23167;-79
2021/04/26 05:04:10;;;;;;;57.05;25.60;;;;;;;0.60;70.04;98795.20;115556;1200;23110;-79
2021/04/26 05:06:56;;;;;;;50.90;23.80;;;;;;;0.70;70.60;98803.89;115332;1199;23116;-79
2021/04/26 05:09:42;;;;;;;51.93;24.93;;;;;;;0.78;69.77;98797.65;115117;1200;23118;-79
2021/04/26 05:12:27;;;;;;;52.43;24.73;;;;;;;0.79;69.62;98802.02;115092;1197;23112;-79
2021/04/26 05:15:14;;;;;;;60.70;24.85;;;;;;;0.82;69.19;98802.50;115104;1202;23247;-79
2021/04/26 05:17:41;;;;;;;55.70;26.40;;;;;;;0.86;70.17;98797.63;114812;1202;23166;-79
2021/04/26 05:20:09;;;;;;;57.35;26.50;;;;;;;0.92;69.46;98791.55;115110;1199;26169;-79
2021/04/26 05:22:38;;;;;;;54.00;26.20;;;;;;;0.93;68.99;98802.11;114941;1199;23113;-79
2021/04/26 05:25:08;;;;;;;61.93;27.90;;;;;;;0.99;68.82;98800.56;115194;1200;23239;-80
2021/04/26 05:27:36;;;;;;;56.60;26.10;;;;;;;1.06;69.38;98796.20;114915;1202;27250;-80
2021/04/26 05:30:09;;;;;;;59.33;27.90;;;;;;;1.12;69.24;98794.66;114951;1202;23565;-80
2021/04/26 05:32:37;;;;;;;55.95;26.65;;;;;;;1.17;68.79;98804.84;114908;1200;23125;-81
2021/04/26 05:35:10;;;;;;;56.03;26.73;;;;;;;1.16;68.52;98803.19;114869;1201;23136;-80
2021/04/26 05:37:37;;;;;;;61.97;28.40;;;;;;;1.15;68.61;98799.65;115083;1202;23101;-81
2021/04/26 05:40:05;;;;;;;59.20;27.67;;;;;;;1.14;68.56;98800.67;114902;1202;23105;-80
2021/04/26 05:42:33;;;;;;;69.50;31.50;;;;;;;1.11;68.43;98793.80;115216;1200;23143;-80
2021/04/26 05:45:00;;;;;;;58.87;27.73;;;;;;;1.18;68.80;98795.80;115220;1199;23112;-80
2021/04/26 05:47:46;;;;;;;68.50;28.55;;;;;;;1.22;69.27;98797.95;115154;1202;23116;-80
2021/04/26 05:50:13;;;;;;;59.80;26.20;;;;;;;1.25;69.13;98804.80;114883;1200;25977;-80
2021/04/26 05:52:40;;;;;;;55.30;24.13;;;;;;;1.29;69.28;98796.23;114892;1200;26355;-80
2021/04/26 05:55:07;;;;;;;64.67;26.33;;;;;;;1.35;69.01;98800.05;115004;1202;27224;-81
2021/04/26 05:57:34;;;;;;;53.67;22.93;;;;;;;1.42;68.88;98800.19;115144;1202;27419;-81
2021/04/26 06:00:01;;;;;;;50.70;22.93;;;;;;;1.52;67.85;98795.40;114848;1200;27336;-81
2021/04/26 06:02:28;;;;;;;50.10;21.13;;;;;;;1.60;67.88;98798.03;114908;1202;23109;-81
2021/04/26 06:04:55;;;;;;;46.33;22.13;;;;;;;1.72;67.55;98793.09;114889;1200;23105;-80
2021/04/26 06:07:21;;;;;;;46.00;21.30;;;;;;;1.80;67.60;98797.55;114774;1203;23118;-81
2021/04/26 06:09:49;;;;;;;52.17;24.00;;;;;;;1.86;67.11;98796.81;115137;1202;23202;-81
2021/04/26 06:12:16;;;;;;;36.40;16.70;;;;;;;1.92;66.38;98798.80;114840;1200;23120;-81
2021/04/26 06:14:42;;;;;;;47.70;20.85;;;;;;;2.00;66.28;98784.45;114847;1202;23253;-81
2021/04/26 06:17:09;;;;;;;46.30;22.15;;;;;;;2.09;65.94;98796.81;114846;1200;27329;-81
2021/04/26 06:19:36;;;;;;;40.17;20.00;;;;;;;2.17;65.36;98793.20;114698;1200;23112;-81
2021/04/26 06:22:03;;;;;;;39.95;17.60;;;;;;;2.25;65.00;98790.45;114857;1202;23116;-82
2021/04/26 06:24:30;;;;;;;39.70;18.60;;;;;;;2.35;64.27;98787.48;114871;1200;26169;-82
2021/04/26 06:26:57;;;;;;;37.83;16.70;;;;;;;2.44;63.73;98778.30;114933;1200;23121;-82
2021/04/26 06:29:23;;;;;;;35.60;16.13;;;;;;;2.55;64.56;98779.69;114816;1202;25978;-82
2021/04/26 06:31:50;;;;;;;41.50;19.30;;;;;;;2.65;63.60;98782.94;114823;1202;23128;-83
2021/04/26 06:34:17;;;;;;;41.83;19.53;;;;;;;2.74;63.24;98779.13;115101;1202;23109;-83
2021/04/26 06:36:44;;;;;;;49.23;19.57;;;;;;;2.83;63.03;98777.17;114843;1197;23173;-83
2021/04/26 06:39:11;;;;;;;42.33;18.87;;;;;;;2.94;62.98;98774.02;114816;1202;23122;-83
2021/04/26 06:41:38;;;;;;;31.00;15.23;;;;;;;3.04;61.63;98774.53;114753;1199;23250;-83
2021/04/26 06:44:05;;;;;;;41.25;17.00;;;;;;;3.16;61.85;98769.52;114826;1202;23324;-83
2021/04/26 06:46:33;;;;;;;34.33;15.40;;;;;;;3.29;61.60;98768.81;115288;1202;23174;-83
2021/04/26 06:49:01;;;;;;;32.45;13.45;;;;;;;3.43;60.90;98772.48;115136;1199;23108;-83
2021/04/26 06:51:28;;;;;;;34.00;15.85;;;;;;;3.56;60.24;98767.25;114791;1202;23132;-83
2021/04/26 06:53:55;;;;;;;29.30;14.10;;;;;;;3.69;60.84;98774.62;114828;1202;27233;-83
2021/04/26 06:56:22;;;;;;;31.70;14.83;;;;;;;3.81;60.89;98761.47;115093;1200;27223;-83
2021/04/26 06:58:49;;;;;;;26.83;11.00;;;;;;;3.92;57.95;98762.80;114871;1200;27421;-82
2021/04/26 07:01:16;;;;;;;19.20;9.57;;;;;;;4.02;57.49;98757.92;114800;1202;23102;-82
2021/04/26 07:03:42;;;;;;;22.03;10.13;;;;;;;4.16;57.61;98756.98;114747;1199;23109;-81
2021/04/26 07:06:09;;;;;;;21.05;9.85;;;;;;;4.28;55.13;98759.95;114787;1202;23191;-80
2021/04/26 07:08:36;;;;;;;15.23;7.93;;;;;;;4.37;55.02;98761.48;114796;1202;23241;-80
2021/04/26 07:11:03;;;;;;;16.23;7.10;;;;;;;4.41;51.12;98758.38;114839;1200;23110;-80
2021/04/26 07:13:30;;;;;;;21.90;10.70;;;;;;;4.46;53.79;98766.70;114838;1200;23125;-80
2021/04/26 07:15:57;;;;;;;12.00;5.30;;;;;;;4.51;49.81;98765.08;114829;1202;23118;-80
2021/04/26 07:18:24;;;;;;;6.53;2.67;;;;;;;4.57;48.64;98747.30;114756;1200;23140;-80
2021/04/26 07:20:51;;;;;;;6.57;2.07;;;;;;;4.63;46.51;98745.66;115120;1201;23256;-80
2021/04/26 07:23:19;;;;;;;8.43;3.17;;;;;;;4.61;47.57;98759.34;115101;1200;23097;-80
2021/04/26 07:25:46;;;;;;;7.10;2.80;;;;;;;4.66;47.76;98756.06;114823;1202;23118;-80
2021/04/26 07:28:12;;;;;;;7.20;2.87;;;;;;;4.75;47.69;98752.98;114840;1202;24908;-80
2021/04/26 07:30:39;;;;;;;9.97;2.80;;;;;;;4.83;48.36;98762.76;114848;1202;23128;-81
2021/04/26 07:33:07;;;;;;;3.80;1.80;;;;;;;4.94;47.71;98758.69;114829;1202;23289;-80
2021/04/26 07:35:35;;;;;;;8.50;2.30;;;;;;;5.06;46.15;98759.73;114844;1202;26210;-80
2021/04/26 07:38:02;;;;;;;6.35;2.50;;;;;;;5.15;46.31;98752.30;114809;1202;23181;-80
2021/04/26 07:40:29;;;;;;;6.57;2.50;;;;;;;5.16;44.20;98758.55;114843;1202;27048;-80
2021/04/26 07:42:56;;;;;;;7.30;3.63;;;;;;;5.17;44.94;98762.89;115136;1200;26133;-80
2021/04/26 07:45:23;;;;;;;6.70;2.67;;;;;;;5.12;44.34;98764.34;114786;1202;23142;-80
2021/04/26 07:47:54;;;;;;;10.70;4.80;;;;;;;5.20;45.70;98757.09;114815;1200;23141;-80
2021/04/26 07:50:21;;;;;;;7.90;3.00;;;;;;;5.24;45.82;98759.20;115133;1202;23256;-80
2021/04/26 07:52:48;;;;;;;5.40;2.60;;;;;;;5.21;43.98;98761.48;114802;1200;26712;-80
2021/04/26 07:55:16;;;;;;;6.20;3.00;;;;;;;5.25;46.01;98749.22;115054;1200;23144;-80
2021/04/26 07:57:43;;;;;;;4.55;1.90;;;;;;;5.30;45.31;98752.16;114797;1198;23180;-80
2021/04/26 08:00:11;;;;;;;6.70;2.23;;;;;;;5.24;43.74;98745.70;115033;1202;23125;-80
2021/04/26 08:02:39;;;;;;;6.33;2.17;;;;;;;5.18;44.93;98749.20;115152;1200;25984;-80
2021/04/26 08:05:07;;;;;;;6.50;2.93;;;;;;;5.24;43.33;98742.15;115023;1200;23111;-80
2021/04/26 08:07:34;;;;;;;5.75;2.05;;;;;;;5.30;42.17;98758.38;114723;1202;23105;-80
2021/04/26 08:10:00;;;;;;;4.60;1.43;;;;;;;5.42;42.36;98747.82;114848;1202;23105;-80
2021/04/26 08:12:27;;;;;;;4.60;2.20;;;;;;;5.65;46.72;98754.72;114803;1202;23106;-80
2021/04/26 08:14:54;;;;;;;4.23;1.80;;;;;;;5.78;44.17;98752.02;114774;1202;26583;-80
2021/04/26 08:17:21;;;;;;;7.70;2.00;;;;;;;5.87;43.60;98752.65;114883;1199;23173;-80
2021/04/26 08:19:48;;;;;;;4.60;2.55;;;;;;;6.06;43.13;98756.44;115138;1203;23166;-78
2021/04/26 08:22:15;;;;;;;4.75;1.80;;;;;;;6.20;42.60;98755.38;114783;1200;23169;-80
2021/04/26 08:24:43;;;;;;;3.90;2.03;;;;;;;6.32;42.77;98750.18;114857;1199;27250;-80
2021/04/26 08:27:10;;;;;;;4.77;1.70;;;;;;;6.37;42.05;98739.53;114845;1202;24721;-80
2021/04/26 08:29:39;;;;;;;3.00;1.30;;;;;;;6.19;39.17;98751.00;114769;1200;27196;-80
2021/04/26 08:32:06;;;;;;;4.08;1.90;;;;;;;6.18;40.26;98753.91;115311;1200;24590;-80
2021/04/26 08:34:33;;;;;;;4.53;1.50;;;;;;;6.07;39.07;98752.67;115520;1197;23879;-77
2021/04/26 08:37:00;;;;;;;5.85;1.60;;;;;;;6.13;42.26;98748.33;115153;1202;24569;-79
2021/04/26 08:39:27;;;;;;;2.75;1.50;;;;;;;6.22;38.67;98747.06;115125;1200;23236;-78
2021/04/26 08:41:58;;;;;;;2.85;1.35;;;;;;;6.29;38.83;98738.95;114924;1202;23092;-78
2021/04/26 08:44:29;;;;;;;3.40;1.83;;;;;;;6.36;39.71;98753.30;115165;1200;26143;-78
2021/04/26 08:46:57;;;;;;;2.17;1.00;;;;;;;6.40;38.15;98741.00;115512;1200;26063;-79
2021/04/26 08:49:24;;;;;;;4.00;1.70;;;;;;;6.46;39.65;98748.26;115350;1203;23232;-78
2021/04/26 08:51:53;;;;;;;5.30;1.57;;;;;;;6.42;39.40;98742.44;114897;1202;23105;-78
2021/04/26 08:54:20;;;;;;;1.38;0.93;;;;;;;6.46;39.03;98740.14;115195;1203;23194;-78
2021/04/26 08:56:48;;;;;;;4.13;1.70;;;;;;;6.59;39.84;98737.42;115017;1200;24725;-78
2021/04/26 08:59:16;;;;;;;8.20;2.55;;;;;;;6.85;40.15;98732.95;115029;1198;22932;-78
2021/04/26 09:02:02;;;;;;;5.53;1.90;;;;;;;7.11;39.30;98748.26;115263;1200;23128;-78
2021/04/26 09:04:35;;;;;;;2.05;1.15;;;;;;;7.33;39.03;98740.66;115043;1202;23134;-78
2021/04/26 09:07:06;;;;;;;3.98;1.78;;;;;;;7.31;37.91;98747.33;115329;1199;23135;-78
2021/04/26 09:09:44;;;;;;;3.70;1.80;;;;;;;7.17;37.79;98751.97;114992;1199;23190;-78
2021/04/26 09:12:28;;;;;;;4.83;1.60;;;;;;;7.14;37.46;98734.30;115012;1200;23120;-78
2021/04/26 09:15:04;;;;;;;3.30;1.50;;;;;;;7.23;37.65;98751.13;115180;1202;23109;-78
2021/04/26 09:17:44;;;;;;;5.73;1.53;;;;;;;7.03;38.20;98743.92;115260;1202;23117;-78
2021/04/26 09:20:19;;;;;;;;;;;;;;;7.18;36.23;98742.81;115212;1203;23113;-78
2021/04/26 09:22:53;;;;;;;2.40;1.40;;;;;;;7.29;39.25;98739.41;115185;1199;24353;-78
2021/04/26 09:25:41;;;;;;;5.25;1.40;;;;;;;7.11;38.60;98745.55;115095;1199;27224;-78
2021/04/26 09:28:17;;;;;;;2.10;1.10;;;;;;;6.89;36.71;98738.77;114849;1202;23121;-78
2021/04/26 09:30:47;;;;;;;2.33;1.57;;;;;;;6.62;35.97;98741.56;114796;1202;23156;-78
2021/04/26 09:33:18;;;;;;;3.20;1.35;;;;;;;6.41;38.59;98737.23;114819;1202;27328;-78
2021/04/26 09:35:56;;;;;;;4.50;1.30;;;;;;;6.34;39.17;98736.41;115071;1202;24730;-79
2021/04/26 09:38:35;;;;;;;2.75;1.30;;;;;;;6.55;41.82;98729.92;115104;1201;23115;-78
2021/04/26 09:41:11;;;;;;;5.43;1.37;;;;;;;6.74;40.37;98736.33;115051;1200;23283;-78
2021/04/26 09:43:40;;;;;;;2.90;1.30;;;;;;;6.82;37.21;98738.81;114904;1202;23108;-78
2021/04/26 09:46:12;;;;;;;2.53;1.57;;;;;;;6.81;37.02;98731.72;114894;1200;23108;-79
2021/04/26 09:48:42;;;;;;;3.00;1.30;;;;;;;7.14;37.43;98725.34;114810;1199;23202;-79
2021/04/26 09:51:23;;;;;;;3.70;1.60;;;;;;;7.53;37.18;98721.56;114730;1202;24910;-78
2021/04/26 09:53:57;;;;;;;1.90;1.05;;;;;;;7.86;36.95;98714.23;115060;1202;25977;-79
2021/04/26 09:56:26;;;;;;;3.50;1.25;;;;;;;7.71;35.53;98731.65;114826;1202;23108;-79
2021/04/26 09:58:56;;;;;;;3.73;1.40;;;;;;;7.51;35.21;98720.13;114793;1202;23121;-79
2021/04/26 10:01:24;;;;;;;3.90;1.30;;;;;;;7.38;36.31;98729.16;114848;1203;25193;-79
2021/04/26 10:03:52;;;;;;;3.35;1.60;;;;;;;7.27;38.61;98725.27;114787;1202;23143;-79
2021/04/26 10:06:21;;;;;;;4.83;2.20;;;;;;;7.16;37.85;98734.08;115104;1202;23240;-79
2021/04/26 10:08:50;;;;;;;2.40;1.63;;;;;;;7.07;37.18;98732.67;114861;1201;26291;-79
2021/04/26 10:11:20;;;;;;;4.45;1.70;;;;;;;7.06;37.46;98725.58;115091;1203;23186;-79
2021/04/26 10:13:49;;;;;;;4.90;1.70;;;;;;;7.21;39.90;98724.25;114806;1200;26593;-79
2021/04/26 10:16:32;;;;;;;2.85;1.58;;;;;;;7.58;36.74;98719.03;115076;1202;23173;-79
2021/04/26 10:19:00;;;;;;;1.95;1.70;;;;;;;8.02;35.63;98716.41;115019;1202;23160;-79
2021/04/26 10:21:27;;;;;;;3.30;1.60;;;;;;;8.36;34.71;98712.31;114795;1203;23134;-79
2021/04/26 10:23:54;;;;;;;1.80;1.20;;;;;;;8.68;34.16;98708.67;114737;1202;23374;-79
2021/04/26 10:26:49;;;;;;;6.60;1.40;;;;;;;8.91;33.42;98697.12;115150;1202;23113;-79
2021/04/26 10:29:26;;;;;;;4.25;1.75;;;;;;;9.02;33.74;98698.23;114828;1199;23108;-79
2021/04/26 10:32:00;;;;;;;3.35;1.05;;;;;;;8.92;35.26;98704.19;115069;1201;23155;-79
2021/04/26 10:34:28;;;;;;;3.80;1.60;;;;;;;8.69;35.06;98697.59;115059;1202;23256;-79
2021/04/26 10:36:59;;;;;;;3.80;1.85;;;;;;;8.61;33.67;98702.49;114753;1202;23186;-79
2021/04/26 10:39:28;;;;;;;2.00;1.00;;;;;;;8.41;32.97;98686.38;115017;1200;27338;-79
2021/04/26 10:42:01;;;;;;;2.37;1.47;;;;;;;8.34;34.71;98691.90;114819;1202;23109;-79
2021/04/26 10:44:40;;;;;;;5.25;1.50;;;;;;;8.18;33.41;98688.70;115042;1202;23170;-79
2021/04/26 10:47:17;;;;;;;1.90;0.80;;;;;;;8.40;31.99;98688.27;114688;1199;23121;-78
2021/04/26 10:49:46;;;;;;;2.13;1.30;;;;;;;8.69;34.13;98665.02;115069;1202;23198;-79
2021/04/26 10:52:35;;;;;;;3.10;1.70;;;;;;;8.95;33.72;98667.61;114759;1200;23170;-78
2021/04/26 10:55:31;;;;;;;2.30;1.30;;;;;;;9.27;34.74;98671.74;114755;1202;23185;-79
2021/04/26 10:58:18;;;;;;;2.50;1.15;;;;;;;9.30;33.25;98676.72;114787;1202;23107;-79
2021/04/26 11:00:46;;;;;;;2.73;1.30;;;;;;;9.02;32.88;98677.32;115057;1200;26934;-79
2021/04/26 11:03:13;;;;;;;3.00;1.30;;;;;;;8.79;32.25;98674.50;115055;1202;23279;-78
2021/04/26 11:05:45;;;;;;;3.55;1.80;;;;;;;8.45;33.71;98677.60;114812;1202;23112;-79
2021/04/26 11:11:49;;;;;;;2.53;1.18;;;;;;;8.25;32.43;98672.37;115047;1201;23173;-79
2021/04/26 11:13:58;;;;;;;4.40;1.67;;;;;;;8.39;34.04;98666.78;114691;1202;23175;-79
2021/04/26 11:16:30;;;;;;;2.20;1.35;;;;;;;8.72;33.66;98667.25;114756;1200;23282;-79
2021/04/26 11:18:57;;;;;;;4.77;2.10;;;;;;;9.22;33.96;98666.16;114754;1199;26167;-79
2021/04/26 11:21:49;;;;;;;3.05;1.50;;;;;;;9.65;32.74;98659.68;114802;1199;27220;-79
2021/04/26 11:24:24;;;;;;;4.45;1.35;;;;;;;9.94;30.61;98659.00;114989;1202;24728;-79
2021/04/26 11:27:16;;;;;;;2.50;2.00;;;;;;;10.13;30.36;98663.26;114761;1200;23259;-79
2021/04/26 11:29:44;;;;;;;4.07;1.63;;;;;;;10.06;30.18;98659.83;114815;1202;23113;-78
2021/04/26 11:32:13;;;;;;;4.70;1.20;;;;;;;10.01;31.13;98662.42;115093;1200;23116;-79
2021/04/26 11:35:05;;;;;;;4.30;2.18;;;;;;;9.82;31.81;98658.98;114891;1202;23138;-79
2021/04/26 11:37:39;;;;;;;1.97;1.07;;;;;;;9.85;28.39;98655.80;114770;1202;23155;-78
2021/04/26 11:40:18;;;;;;;6.00;1.65;;;;;;;9.58;28.99;98645.36;114970;1200;23139;-79
2021/04/26 11:42:45;;;;;;;;;;;;;;;9.37;30.69;98644.02;114873;1198;26008;-79
2021/04/26 11:45:14;;;;;;;5.45;1.70;;;;;;;9.14;30.72;98647.49;115009;1202;21614;-78
2021/04/26 11:47:41;;;;;;;5.97;1.83;;;;;;;8.92;32.26;98637.14;114832;1200;23565;-78
2021/04/26 11:50:11;;;;;;;3.30;1.70;;;;;;;9.00;33.04;98635.98;114793;1202;26756;-79